createdAt,value
2022-12-22T00:00:58.857Z,91.20
2022-12-22T00:06:21.311Z,91.32
2022-12-22T00:11:43.974Z,91.27
2022-12-22T00:17:05.888Z,91.41
2022-12-22T00:22:44.577Z,91.48
2022-12-22T00:28:06.203Z,91.55
2022-12-22T00:33:30.566Z,91.59
2022-12-22T00:38:52.652Z,91.63
2022-12-22T00:44:14.410Z,91.66
2022-12-22T00:49:36.499Z,91.77
2022-12-22T00:54:58.707Z,91.91
2022-12-22T01:00:21.569Z,91.96
2022-12-22T01:05:43.307Z,91.84
2022-12-22T01:11:05.665Z,91.82
2022-12-22T01:16:30.027Z,91.71
2022-12-22T01:21:52.227Z,91.73
2022-12-22T01:27:14.076Z,91.82
2022-12-22T01:32:35.912Z,91.91
2022-12-22T01:37:58.063Z,91.97
2022-12-22T01:43:19.702Z,91.94
2022-12-22T01:48:49.228Z,91.97
2022-12-22T01:54:11.828Z,91.96
2022-12-22T01:59:33.621Z,92.02
2022-12-22T02:04:57.016Z,92.05
2022-12-22T02:10:33.708Z,92.11
2022-12-22T02:16:00.394Z,92.10
2022-12-22T02:21:30.096Z,92.25
2022-12-22T02:27:01.574Z,92.43
2022-12-22T02:32:23.825Z,92.47
2022-12-22T02:37:48.638Z,92.44
2022-12-22T02:43:20.213Z,92.43
2022-12-22T02:48:46.556Z,92.41
2022-12-22T02:54:08.814Z,92.44
2022-12-22T02:59:30.658Z,92.34
2022-12-22T03:04:52.505Z,92.26
2022-12-22T03:10:14.658Z,92.36
2022-12-22T03:15:36.604Z,92.38
2022-12-22T03:20:58.235Z,92.33
2022-12-22T03:26:02.585Z,92.21
2022-12-22T03:31:06.344Z,92.16
2022-12-22T03:36:09.706Z,92.10
2022-12-22T03:41:32.999Z,92.09
2022-12-22T03:46:36.336Z,92.10
2022-12-22T03:51:42.886Z,92.18
2022-12-22T03:56:46.093Z,92.23
2022-12-22T04:01:51.359Z,92.30
2022-12-22T04:06:54.962Z,92.39
2022-12-22T04:12:16.607Z,92.47
2022-12-22T04:17:19.707Z,92.40
2022-12-22T04:22:22.811Z,92.44
2022-12-22T04:27:26.328Z,92.50
2022-12-22T04:32:29.539Z,92.64
2022-12-22T04:37:32.542Z,92.55
2022-12-22T04:42:35.856Z,92.46
2022-12-22T04:47:39.054Z,92.47
2022-12-22T04:52:42.065Z,92.55
2022-12-22T04:57:45.677Z,92.86
2022-12-22T05:02:48.930Z,92.89
2022-12-22T05:07:52.089Z,92.73
2022-12-22T05:12:55.107Z,92.61
2022-12-22T05:17:59.033Z,92.63
2022-12-22T05:23:02.125Z,92.66
2022-12-22T05:28:05.440Z,92.55
2022-12-22T05:33:08.746Z,92.53
2022-12-22T05:38:11.850Z,92.53
2022-12-22T05:43:14.972Z,92.62
2022-12-22T05:48:22.488Z,92.58
2022-12-22T05:53:29.360Z,92.59
2022-12-22T05:58:33.387Z,92.49
2022-12-22T06:03:36.747Z,92.52
2022-12-22T06:08:40.028Z,92.61
2022-12-22T06:13:43.113Z,92.51
2022-12-22T06:18:46.221Z,92.43
2022-12-22T06:23:49.525Z,92.50
2022-12-22T06:28:52.839Z,92.50
2022-12-22T06:33:55.943Z,92.55
2022-12-22T06:38:59.056Z,92.61
2022-12-22T06:44:02.362Z,92.55
2022-12-22T06:49:05.465Z,92.56
2022-12-22T06:54:08.575Z,92.61
2022-12-22T06:59:11.575Z,92.70
2022-12-22T07:04:20.012Z,92.79
2022-12-22T07:09:23.122Z,92.84
2022-12-22T07:14:26.216Z,93.03
2022-12-22T07:19:29.335Z,93.19
2022-12-22T07:24:33.451Z,93.46
2022-12-22T07:29:36.968Z,93.17
2022-12-22T07:34:40.124Z,93.12
2022-12-22T07:39:43.588Z,93.19
2022-12-22T07:44:46.693Z,93.10
2022-12-22T07:50:10.175Z,93.12
2022-12-22T07:55:16.419Z,93.08
2022-12-22T08:00:22.782Z,93.12
2022-12-22T08:05:25.948Z,93.30
2022-12-22T08:10:29.061Z,93.26
2022-12-22T08:15:32.264Z,93.24
2022-12-22T08:20:35.680Z,93.18
2022-12-22T08:25:40.308Z,93.34
2022-12-22T08:30:44.146Z,93.40
2022-12-22T08:35:47.647Z,93.40
2022-12-22T08:40:51.161Z,93.35
2022-12-22T08:45:54.880Z,93.34
2022-12-22T08:50:59.014Z,93.38
2022-12-22T08:56:02.014Z,93.43
2022-12-22T09:01:05.255Z,93.49
2022-12-22T09:06:08.326Z,93.55
2022-12-22T09:11:12.356Z,93.44
2022-12-22T09:16:15.594Z,93.34
2022-12-22T09:21:19.075Z,93.25
2022-12-22T09:26:23.312Z,93.18
2022-12-22T09:31:26.958Z,93.14
2022-12-22T09:36:31.264Z,93.15
2022-12-22T09:41:43.276Z,93.14
2022-12-22T09:46:47.289Z,93.14
2022-12-22T09:51:54.606Z,93.13
2022-12-22T09:56:58.630Z,93.11
2022-12-22T10:02:15.654Z,93.15
2022-12-22T10:07:26.575Z,93.17
2022-12-22T10:12:29.658Z,93.14
2022-12-22T10:17:33.999Z,93.14
2022-12-22T10:22:46.209Z,93.23
2022-12-22T10:27:51.548Z,93.19
2022-12-22T10:33:09.426Z,93.09
2022-12-22T10:38:21.328Z,93.10
2022-12-22T10:43:30.167Z,93.04
2022-12-22T10:48:38.107Z,92.98
2022-12-22T10:53:52.967Z,92.97
2022-12-22T10:58:58.534Z,93.02
2022-12-22T11:04:21.915Z,93.02
2022-12-22T11:09:35.005Z,93.00
2022-12-22T11:14:50.856Z,93.08
2022-12-22T11:19:54.404Z,93.21
2022-12-22T11:25:15.534Z,93.28
2022-12-22T11:30:22.432Z,93.12
2022-12-22T11:35:44.763Z,93.06
2022-12-22T11:40:51.443Z,93.00
2022-12-22T11:46:30.028Z,92.96
2022-12-22T11:51:33.593Z,92.96
2022-12-22T11:56:41.736Z,93.06
2022-12-22T12:02:16.991Z,93.14
2022-12-22T12:07:41.396Z,93.11
2022-12-22T12:13:03.960Z,92.79
2022-12-22T12:18:27.507Z,92.73
2022-12-22T12:23:50.717Z,92.71
2022-12-22T12:29:05.996Z,92.74
2022-12-22T12:34:13.330Z,92.72
2022-12-22T12:39:31.687Z,92.78
2022-12-22T12:44:36.201Z,92.86
2022-12-22T12:49:39.923Z,92.65
2022-12-22T12:54:44.063Z,92.59
2022-12-22T12:59:49.020Z,92.55
2022-12-22T13:05:04.821Z,92.43
2022-12-22T13:10:19.677Z,92.47
2022-12-22T13:15:31.235Z,92.42
2022-12-22T13:20:36.136Z,92.07
2022-12-22T13:25:43.068Z,91.84
2022-12-22T13:30:48.927Z,91.87
2022-12-22T13:35:56.702Z,91.82
2022-12-22T13:41:14.473Z,91.74
2022-12-22T13:46:18.034Z,91.80
2022-12-22T13:51:23.578Z,91.96
2022-12-22T13:56:33.477Z,92.15
2022-12-22T14:01:36.990Z,92.30
2022-12-22T14:06:41.667Z,92.46
2022-12-22T14:11:51.728Z,92.63
2022-12-22T14:17:00.899Z,92.75
2022-12-22T14:22:08.215Z,92.85
2022-12-22T14:27:33.724Z,92.99
2022-12-22T14:32:39.612Z,93.08
2022-12-22T14:37:42.907Z,93.21
2022-12-22T14:42:46.726Z,93.27
2022-12-22T14:47:50.649Z,93.41
2022-12-22T14:52:55.607Z,93.58
2022-12-22T14:57:59.124Z,93.66
2022-12-22T15:03:23.955Z,93.65
2022-12-22T15:08:38.787Z,93.68
2022-12-22T15:13:43.147Z,93.67
2022-12-22T15:18:47.282Z,93.89
2022-12-22T15:23:50.581Z,93.99
2022-12-22T15:28:54.304Z,94.04
2022-12-22T15:33:59.559Z,93.93
2022-12-22T15:39:02.780Z,93.81
2022-12-22T15:44:07.116Z,93.79
2022-12-22T15:49:21.173Z,93.52
2022-12-22T15:54:26.424Z,93.27
2022-12-22T15:59:30.077Z,93.28
2022-12-22T16:04:33.041Z,93.23
2022-12-22T16:09:41.481Z,92.95
2022-12-22T16:14:50.321Z,92.90
2022-12-22T16:19:54.965Z,92.97
2022-12-22T16:24:58.678Z,93.03
2022-12-22T16:30:01.904Z,93.00
2022-12-22T16:35:12.159Z,92.99
2022-12-22T16:40:17.166Z,92.98
2022-12-22T16:45:23.792Z,92.94
2022-12-22T16:50:33.532Z,92.92
2022-12-22T16:55:36.867Z,92.96
2022-12-22T17:00:44.062Z,92.95
2022-12-22T17:06:09.654Z,92.75
2022-12-22T17:11:19.154Z,92.71
2022-12-22T17:16:24.207Z,92.68
2022-12-22T17:21:29.968Z,92.71
2022-12-22T17:26:35.229Z,92.57
2022-12-22T17:31:39.290Z,92.53
2022-12-22T17:36:43.693Z,92.42
2022-12-22T17:41:52.296Z,92.32
2022-12-22T17:47:00.614Z,92.34
2022-12-22T17:52:03.866Z,92.33
2022-12-22T17:57:07.396Z,92.32
2022-12-22T18:02:16.492Z,92.30
2022-12-22T18:07:21.474Z,92.33
2022-12-22T18:12:25.503Z,92.40
2022-12-22T18:17:35.504Z,92.53
2022-12-22T18:22:39.473Z,93.24
2022-12-22T18:27:43.012Z,92.86
2022-12-22T18:32:47.160Z,92.86
2022-12-22T18:37:52.498Z,92.47
2022-12-22T18:42:56.221Z,91.28
2022-12-22T18:47:59.322Z,90.70
2022-12-22T18:53:04.893Z,91.59
2022-12-22T18:58:13.625Z,91.54
2022-12-22T19:03:18.582Z,90.65
2022-12-22T19:08:23.316Z,91.14
2022-12-22T19:13:39.736Z,90.48
2022-12-22T19:18:43.355Z,89.87
2022-12-22T19:23:46.768Z,89.59
2022-12-22T19:28:52.947Z,89.67
2022-12-22T19:33:57.830Z,90.34
2022-12-22T19:39:04.486Z,91.54
2022-12-22T19:44:28.170Z,90.56
2022-12-22T19:49:31.479Z,89.94
2022-12-22T19:54:35.095Z,89.70
2022-12-22T19:59:43.017Z,89.78
2022-12-22T20:04:46.221Z,89.91
2022-12-22T20:09:49.555Z,90.12
2022-12-22T20:14:53.364Z,90.30
2022-12-22T20:19:56.774Z,90.52
2022-12-22T20:25:00.179Z,90.71
2022-12-22T20:30:04.694Z,90.76
2022-12-22T20:35:10.088Z,91.08
2022-12-22T20:40:31.229Z,90.92
2022-12-22T20:45:35.472Z,90.73
2022-12-22T20:50:41.889Z,90.70
2022-12-22T20:55:45.516Z,90.81
2022-12-22T21:00:55.911Z,91.01
2022-12-22T21:05:59.360Z,91.19
2022-12-22T21:11:03.060Z,91.19
2022-12-22T21:16:10.297Z,91.36
2022-12-22T21:21:13.681Z,91.34
2022-12-22T21:26:25.373Z,91.45
2022-12-22T21:31:28.966Z,91.46
2022-12-22T21:36:33.498Z,91.45
2022-12-22T21:41:55.274Z,91.48
2022-12-22T21:46:59.400Z,91.58
2022-12-22T21:52:02.626Z,91.55
2022-12-22T21:57:06.235Z,91.60
2022-12-22T22:02:19.153Z,91.74
2022-12-22T22:07:23.133Z,92.05
2022-12-22T22:12:37.506Z,92.25
2022-12-22T22:17:41.383Z,92.32
2022-12-22T22:22:45.307Z,92.31
2022-12-22T22:27:48.827Z,92.43
2022-12-22T22:32:52.550Z,92.44
2022-12-22T22:37:56.286Z,92.49
2022-12-22T22:42:59.269Z,92.39
2022-12-22T22:48:07.790Z,92.43
2022-12-22T22:53:14.760Z,92.40
2022-12-22T22:58:18.016Z,92.27
2022-12-22T23:03:23.492Z,92.23
2022-12-22T23:08:26.781Z,92.30
2022-12-22T23:13:29.883Z,92.41
2022-12-22T23:18:34.114Z,92.35
2022-12-22T23:23:37.729Z,92.43
2022-12-22T23:28:40.735Z,93.51
2022-12-22T23:33:44.363Z,93.55
2022-12-22T23:38:47.521Z,93.26
2022-12-22T23:43:50.892Z,92.96
2022-12-22T23:48:55.518Z,92.74
2022-12-22T23:54:00.925Z,92.70
2022-12-22T23:59:04.076Z,92.61
